This is the latest recevied weather packets stored in our database for station/object W4GAP. If no packets are shown the sender has not sent any weather packets the latest 1 day(s).
| Time | Temp. | Humidity | Pressure | Rain* | Wind** | Luminosity | Snow |
|---|---|---|---|---|---|---|---|
| 1777993244 | 21.11° C | 58% | 1013.5 hPa | 0 mm | 0 m/s | 119 W/m² | - |
| 1777992940 | 20.56° C | 58% | 1013.4 hPa | 0 mm | 0 m/s | 77 W/m² | - |
| 1777992639 | 20.56° C | 57% | 1013.7 hPa | 0 mm | 0 m/s | 186 W/m² | - |
| 1777992336 | 20° C | 59% | 1013.4 hPa | 0 mm | 0 m/s | 27 W/m² | - |
| 1777992033 | 20° C | 61% | 1013.8 hPa | 0 mm | 0 m/s | 26 W/m² | - |
| 1777991731 | 19.44° C | 62% | 1013.4 hPa | 0 mm | 0 m/s | 27 W/m² | - |
| 1777991428 | 19.44° C | 62% | 1013.3 hPa | 0 mm | 0 m/s | 23 W/m² | - |
| 1777991125 | 18.89° C | 63% | 1013.4 hPa | 0 mm | 0 m/s | 27 W/m² | - |
| 1777990822 | 18.89° C | 65% | 1013.5 hPa | 0 mm | 0 m/s | 26 W/m² | - |
| 1777990520 | 18.89° C | 65% | 1013.7 hPa | 0 mm | 0 m/s | 23 W/m² | - |
| 1777990216 | 18.89° C | 65% | 1013.4 hPa | 0 mm | 0.45 m/s, 299° | 21 W/m² | - |
| 1777989914 | 18.33° C | 66% | 1013.5 hPa | 0 mm | 0 m/s | 21 W/m² | - |
| 1777989610 | 18.33° C | 67% | 1013.2 hPa | 0 mm | 0 m/s | 23 W/m² | - |
| 1777989306 | 18.33° C | 66% | 1013.5 hPa | 0 mm | 0 m/s | 19 W/m² | - |
| 1777989003 | 17.78° C | 66% | 1013.4 hPa | 0 mm | 0 m/s | 24 W/m² | - |
| 1777988699 | 17.78° C | 67% | 1013.4 hPa | 0 mm | 0 m/s | 41 W/m² | - |
| 1777988396 | 17.22° C | 69% | 1013.4 hPa | 0 mm | 0 m/s | 24 W/m² | - |
| 1777988093 | 16.67° C | 71% | 1013.4 hPa | 0 mm | 0 m/s | 19 W/m² | - |
| 1777987788 | 16.67° C | 70% | 1013.7 hPa | 0 mm | 0 m/s | 18 W/m² | - |
| 1777987485 | 16.11° C | 72% | 1013.4 hPa | 0 mm | 0 m/s | 17 W/m² | - |
| 1777987183 | 15.56° C | 73% | 1013.1 hPa | 0 mm | 0 m/s | 15 W/m² | - |
| 1777986880 | 15.56° C | 73% | 1013.1 hPa | 0 mm | 0 m/s | 16 W/m² | - |
| 1777986578 | 15° C | 75% | 1012.8 hPa | 0 mm | 0 m/s | 17 W/m² | - |
| 1777986276 | 15° C | 75% | 1013.1 hPa | 0 mm | 0 m/s | 14 W/m² | - |
| 1777985973 | 14.44° C | 75% | 1012.9 hPa | 0 mm | 0 m/s | 14 W/m² | - |
* Rain latest hour (hover to see other rain measurements)
** Current wind speed in m/s (hover to see current wind gust speed)